Time;durP1;ratioP1;P1;durP2;ratioP2;P2;SDS_P1;SDS_P2;PMS_P1;PMS_P2;Temp;Humidity;BMP_temperature;BMP_pressure;BME280_temperature;BME280_humidity;BME280_pressure;Samples;Min_cycle;Max_cycle;Signal;HPM_P1;HPM_P2
2021/06/03 00:03:18;;;;;;;6.23;5.63;;;19.70;26.10;;;;;;10421750;28;20864;-76
2021/06/03 00:08:24;;;;;;;6.90;6.20;;;19.60;25.70;;;;;;10430178;28;20766;-75
2021/06/03 00:13:30;;;;;;;5.33;4.93;;;19.60;26.30;;;;;;10427333;28;20236;-76
2021/06/03 00:18:32;;;;;;;4.67;4.10;;;19.50;26.30;;;;;;10422761;28;20231;-76
2021/06/03 00:23:35;;;;;;;4.90;4.40;;;19.40;25.80;;;;;;10428163;28;20232;-76
2021/06/03 00:28:39;;;;;;;5.30;4.67;;;19.40;25.80;;;;;;10429429;28;20233;-75
2021/06/03 00:33:42;;;;;;;5.00;4.53;;;19.30;26.10;;;;;;10423692;28;20612;-76
2021/06/03 00:38:45;;;;;;;5.50;5.00;;;19.20;25.80;;;;;;10432267;28;20227;-76
2021/06/03 00:43:49;;;;;;;4.13;3.73;;;19.10;26.00;;;;;;10421806;28;20230;-75
2021/06/03 00:48:53;;;;;;;3.67;3.37;;;19.10;26.20;;;;;;10425898;28;20331;-76
2021/06/03 00:53:57;;;;;;;3.80;3.40;;;19.10;26.00;;;;;;10428315;28;20225;-75
2021/06/03 00:59:01;;;;;;;3.63;3.33;;;19.20;26.30;;;;;;10429547;28;20225;-76
2021/06/03 01:04:05;;;;;;;3.77;3.17;;;19.10;26.40;;;;;;10420778;28;20644;-75
2021/06/03 01:09:12;;;;;;;3.00;2.70;;;19.10;26.20;;;;;;10427006;28;20592;-75
2021/06/03 01:14:21;;;;;;;3.20;2.93;;;19.10;26.20;;;;;;10425112;28;20232;-76
2021/06/03 01:19:28;;;;;;;3.20;3.00;;;19.10;26.40;;;;;;10420928;28;20306;-75
2021/06/03 01:24:34;;;;;;;2.73;2.57;;;19.10;26.20;;;;;;10419479;28;20655;-76
2021/06/03 01:29:45;;;;;;;3.43;3.13;;;19.00;26.20;;;;;;10423137;28;20217;-75
2021/06/03 01:34:49;;;;;;;3.30;2.93;;;18.90;26.50;;;;;;10415759;28;20305;-76
2021/06/03 01:39:54;;;;;;;2.97;2.70;;;18.90;26.00;;;;;;10432590;28;20227;-75
2021/06/03 01:44:57;;;;;;;3.00;2.80;;;18.80;26.30;;;;;;10418187;28;20237;-76
2021/06/03 01:50:00;;;;;;;3.03;2.70;;;18.80;26.40;;;;;;10426475;28;20229;-75
2021/06/03 01:55:06;;;;;;;3.57;3.03;;;18.70;26.30;;;;;;10412941;28;20816;-76
2021/06/03 02:00:13;;;;;;;3.00;2.63;;;18.70;26.70;;;;;;10417792;28;20236;-76
2021/06/03 02:05:16;;;;;;;3.23;3.03;;;18.70;26.80;;;;;;10418653;28;20237;-76
2021/06/03 02:10:21;;;;;;;3.20;3.00;;;18.70;26.50;;;;;;10424890;28;20259;-75
2021/06/03 02:15:28;;;;;;;2.80;2.60;;;18.70;26.90;;;;;;10416253;28;20761;-75
2021/06/03 02:20:33;;;;;;;3.50;3.20;;;18.70;26.80;;;;;;10424542;28;20225;-76
2021/06/03 02:25:38;;;;;;;3.20;3.00;;;18.60;27.00;;;;;;10428952;28;20229;-76
2021/06/03 02:30:41;;;;;;;4.00;3.57;;;18.60;26.90;;;;;;10426373;28;20236;-76
2021/06/03 02:35:46;;;;;;;3.37;2.90;;;18.50;26.60;;;;;;10430084;28;20228;-76
2021/06/03 02:40:51;;;;;;;4.47;3.37;;;18.40;26.90;;;;;;10425785;28;20225;-76
2021/06/03 02:45:55;;;;;;;3.50;3.20;;;18.30;27.20;;;;;;10426592;28;20226;-76
2021/06/03 02:50:58;;;;;;;3.90;3.00;;;18.10;26.80;;;;;;10435092;28;20229;-75
2021/06/03 02:56:02;;;;;;;3.37;3.07;;;17.90;26.80;;;;;;10434006;28;20222;-76
2021/06/03 03:01:05;;;;;;;3.83;3.23;;;17.80;27.40;;;;;;10422508;28;20861;-75
2021/06/03 03:06:08;;;;;;;3.90;3.50;;;17.70;27.20;;;;;;10425246;28;20233;-75
2021/06/03 03:11:12;;;;;;;3.53;3.23;;;17.70;27.40;;;;;;10424893;28;20237;-75
2021/06/03 03:16:14;;;;;;;4.07;3.03;;;17.70;27.80;;;;;;10432369;28;20231;-75
2021/06/03 03:21:18;;;;;;;2.87;2.67;;;17.70;27.50;;;;;;10427083;28;20245;-75
2021/06/03 03:26:22;;;;;;;3.43;3.00;;;17.70;27.60;;;;;;10430169;28;20600;-75
2021/06/03 03:31:25;;;;;;;3.37;3.10;;;17.60;27.70;;;;;;10423379;28;20241;-76
2021/06/03 03:36:28;;;;;;;3.07;2.87;;;17.60;27.70;;;;;;10429428;28;20850;-75
2021/06/03 03:41:32;;;;;;;3.77;3.33;;;17.50;27.70;;;;;;10426506;28;20237;-75
2021/06/03 03:46:36;;;;;;;3.00;2.80;;;17.50;27.80;;;;;;10425196;28;20233;-76
2021/06/03 03:51:39;;;;;;;3.87;3.57;;;17.40;27.60;;;;;;10425063;28;20263;-75
2021/06/03 03:56:43;;;;;;;3.87;3.17;;;17.30;27.70;;;;;;10428323;28;20221;-75
2021/06/03 04:01:46;;;;;;;3.77;3.47;;;17.20;28.00;;;;;;10428322;28;20242;-75
2021/06/03 04:06:50;;;;;;;3.37;3.10;;;17.10;28.00;;;;;;10427104;28;20236;-75
2021/06/03 04:11:54;;;;;;;4.37;3.70;;;17.00;28.20;;;;;;10425467;28;20234;-76
2021/06/03 04:16:57;;;;;;;5.53;3.97;;;16.90;28.50;;;;;;10426692;28;20252;-75
2021/06/03 04:22:00;;;;;;;4.30;3.90;;;16.80;28.30;;;;;;10430964;28;20236;-75
2021/06/03 04:27:04;;;;;;;4.37;3.90;;;16.70;28.50;;;;;;10430386;28;20249;-75
2021/06/03 04:32:08;;;;;;;3.63;3.33;;;16.60;29.30;;;;;;10428802;28;20225;-75
2021/06/03 04:37:11;;;;;;;5.40;3.67;;;16.60;29.10;;;;;;10429221;28;20229;-75
2021/06/03 04:42:15;;;;;;;4.93;4.07;;;16.60;29.30;;;;;;10418585;28;20313;-76
2021/06/03 04:47:18;;;;;;;4.27;3.83;;;16.60;29.70;;;;;;10430880;28;20229;-75
2021/06/03 04:52:28;;;;;;;4.13;3.83;;;16.60;29.60;;;;;;10428009;28;21523;-75
2021/06/03 04:57:32;;;;;;;4.30;4.00;;;16.60;29.80;;;;;;10426649;28;20263;-75
2021/06/03 05:02:35;;;;;;;4.33;3.83;;;16.70;30.60;;;;;;10424750;28;20233;-73
2021/06/03 05:07:48;;;;;;;4.67;4.27;;;16.80;30.40;;;;;;10471757;27;20303;-76
2021/06/03 05:12:52;;;;;;;4.63;4.23;;;17.00;31.10;;;;;;10460968;28;20260;-77
2021/06/03 05:17:56;;;;;;;5.07;4.13;;;17.20;30.90;;;;;;10452078;28;20229;-77
2021/06/03 05:23:02;;;;;;;4.37;3.97;;;17.40;31.00;;;;;;10459266;28;20250;-77
2021/06/03 05:28:05;;;;;;;4.47;4.07;;;17.50;31.30;;;;;;10461736;28;20844;-77
2021/06/03 05:33:08;;;;;;;4.40;4.00;;;17.70;30.90;;;;;;10455587;28;20232;-75
2021/06/03 05:38:12;;;;;;;3.97;3.67;;;17.90;31.20;;;;;;10459310;28;20236;-75
2021/06/03 05:43:15;;;;;;;4.13;3.83;;;18.00;31.50;;;;;;10454938;28;20479;-75
2021/06/03 05:48:17;;;;;;;4.33;4.03;;;18.20;31.00;;;;;;10456566;28;20603;-75
2021/06/03 05:53:21;;;;;;;3.70;3.50;;;18.40;30.90;;;;;;10450732;28;20225;-75
2021/06/03 05:58:24;;;;;;;4.47;3.50;;;18.60;31.20;;;;;;10452628;28;20701;-75
2021/06/03 06:03:36;;;;;;;4.87;3.77;;;18.80;30.70;;;;;;10450849;28;20979;-75
2021/06/03 06:08:41;;;;;;;4.60;3.90;;;19.00;30.90;;;;;;10460065;28;20586;-74
2021/06/03 06:13:44;;;;;;;4.20;3.90;;;19.30;31.10;;;;;;10456036;28;20240;-74
2021/06/03 06:18:47;;;;;;;4.43;3.70;;;19.50;30.50;;;;;;10428749;28;20242;-74
2021/06/03 06:23:52;;;;;;;3.77;3.47;;;19.70;30.60;;;;;;10420773;28;20243;-74
2021/06/03 06:28:56;;;;;;;4.20;3.90;;;19.80;30.80;;;;;;10425771;28;20229;-76
2021/06/03 06:33:59;;;;;;;3.97;3.67;;;20.00;30.80;;;;;;10428364;28;20263;-77
2021/06/03 06:39:04;;;;;;;4.50;4.10;;;20.20;30.30;;;;;;10427605;28;20606;-76
2021/06/03 06:44:07;;;;;;;4.60;4.30;;;20.40;30.90;;;;;;10428228;28;20618;-76
2021/06/03 06:49:10;;;;;;;5.23;4.77;;;20.50;30.30;;;;;;10424391;28;20213;-76
2021/06/03 06:54:14;;;;;;;5.10;4.60;;;20.70;30.30;;;;;;10420185;28;20595;-76
2021/06/03 06:59:17;;;;;;;4.80;4.40;;;20.90;30.60;;;;;;10428333;28;20221;-76
2021/06/03 07:04:19;;;;;;;5.60;5.10;;;21.10;30.40;;;;;;10423755;28;20231;-76
2021/06/03 07:09:27;;;;;;;5.10;4.70;;;21.30;30.30;;;;;;10430038;28;20724;-77
2021/06/03 07:14:32;;;;;;;6.93;5.40;;;21.50;30.70;;;;;;10436318;28;20278;-75
2021/06/03 07:19:35;;;;;;;5.60;5.10;;;21.60;30.30;;;;;;10429719;28;20717;-75
2021/06/03 07:24:40;;;;;;;5.00;4.60;;;21.90;30.20;;;;;;10430155;28;20244;-75
2021/06/03 07:29:43;;;;;;;4.87;4.37;;;22.10;30.50;;;;;;10430315;28;20231;-75
2021/06/03 07:34:46;;;;;;;4.70;4.30;;;22.30;30.30;;;;;;10428514;28;20244;-75
2021/06/03 07:39:50;;;;;;;4.87;4.47;;;22.50;30.30;;;;;;10426607;28;20221;-75
2021/06/03 07:44:53;;;;;;;4.70;4.30;;;22.70;30.20;;;;;;10420512;28;20233;-78
2021/06/03 07:49:56;;;;;;;6.03;4.83;;;22.90;30.10;;;;;;10422112;28;20225;-75
2021/06/03 07:55:00;;;;;;;5.30;4.60;;;23.10;30.00;;;;;;10423251;28;20774;-76
2021/06/03 08:00:05;;;;;;;5.43;5.03;;;23.30;29.70;;;;;;10425978;28;20236;-77
2021/06/03 08:05:09;;;;;;;5.40;5.00;;;23.50;29.70;;;;;;10433339;28;20257;-77
2021/06/03 08:10:16;;;;;;;5.40;5.00;;;23.70;29.60;;;;;;10437945;28;20760;-77
2021/06/03 08:15:21;;;;;;;5.30;4.90;;;23.90;29.30;;;;;;10430665;28;21017;-75
2021/06/03 08:20:26;;;;;;;5.87;5.30;;;24.10;29.30;;;;;;10428714;28;20236;-75
2021/06/03 08:25:30;;;;;;;4.97;4.57;;;24.40;29.30;;;;;;10429189;28;20227;-75
2021/06/03 08:30:34;;;;;;;5.57;5.00;;;24.60;29.30;;;;;;10430211;28;20223;-75
2021/06/03 08:35:38;;;;;;;4.90;4.50;;;24.90;29.00;;;;;;10431158;28;20217;-76
2021/06/03 08:40:45;;;;;;;4.77;4.27;;;25.10;28.70;;;;;;10430160;28;20915;-76
2021/06/03 08:45:48;;;;;;;4.87;4.47;;;25.40;28.90;;;;;;10426534;28;20228;-76
2021/06/03 08:50:54;;;;;;;5.20;4.30;;;25.60;28.90;;;;;;10427177;28;20282;-76
2021/06/03 09:01:20;;;;;;;4.40;4.00;;;26.00;28.70;;;;;;10424442;28;20229;-75
2021/06/03 09:06:24;;;;;;;3.97;3.67;;;26.20;27.70;;;;;;10421641;28;20331;-75
2021/06/03 09:11:34;;;;;;;4.20;3.90;;;26.40;27.70;;;;;;10418750;28;20237;-76
2021/06/03 09:16:38;;;;;;;3.90;3.60;;;26.70;26.80;;;;;;10416669;28;20633;-75
2021/06/03 09:21:46;;;;;;;4.40;3.27;;;26.90;27.10;;;;;;10420380;28;20309;-74
2021/06/03 09:26:52;;;;;;;3.80;3.50;;;27.10;26.50;;;;;;10424115;28;20235;-75
2021/06/03 09:32:03;;;;;;;3.80;3.50;;;27.30;26.40;;;;;;10421005;28;20256;-75
2021/06/03 09:37:07;;;;;;;4.30;3.90;;;27.50;26.10;;;;;;10424463;28;20233;-75
2021/06/03 09:42:15;;;;;;;3.80;3.50;;;27.60;26.40;;;;;;10424033;28;20237;-75
2021/06/03 09:47:20;;;;;;;4.03;3.73;;;27.80;25.70;;;;;;10421030;28;20710;-75
2021/06/03 09:52:25;;;;;;;3.70;3.50;;;27.90;25.60;;;;;;10434131;28;20224;-75
2021/06/03 09:57:31;;;;;;;3.70;3.40;;;28.10;25.40;;;;;;10434316;28;20231;-75
2021/06/03 10:02:36;;;;;;;3.90;3.30;;;28.20;24.90;;;;;;10434426;28;20231;-77
2021/06/03 10:07:39;;;;;;;3.33;3.13;;;28.30;25.20;;;;;;10431299;28;20822;-75
2021/06/03 10:12:46;;;;;;;3.07;2.87;;;28.40;24.60;;;;;;10426564;28;20241;-77
2021/06/03 10:17:51;;;;;;;3.20;3.00;;;28.60;24.50;;;;;;10431584;28;20695;-75
2021/06/03 10:22:54;;;;;;;3.03;2.83;;;28.70;23.80;;;;;;10430917;28;20226;-75
2021/06/03 10:28:01;;;;;;;3.40;3.10;;;28.80;23.20;;;;;;10434039;28;20639;-75
2021/06/03 10:33:06;;;;;;;2.93;2.70;;;28.90;23.00;;;;;;10435946;28;20649;-77
2021/06/03 10:38:11;;;;;;;3.60;2.93;;;28.90;22.80;;;;;;10434260;28;20240;-75
2021/06/03 10:43:15;;;;;;;3.00;2.80;;;29.00;22.50;;;;;;10430263;28;20270;-71
2021/06/03 10:48:18;;;;;;;3.30;3.10;;;29.10;22.20;;;;;;10431836;28;20239;-75
2021/06/03 10:53:22;;;;;;;3.57;2.80;;;29.20;22.50;;;;;;10430387;28;20950;-74
2021/06/03 10:58:34;;;;;;;3.10;2.80;;;29.30;21.70;;;;;;10434246;28;20303;-75
2021/06/03 11:03:39;;;;;;;3.27;2.60;;;29.30;21.70;;;;;;10422043;28;20241;-75
2021/06/03 11:08:46;;;;;;;2.60;2.50;;;29.40;21.70;;;;;;10434486;28;20225;-75
2021/06/03 11:14:11;;;;;;;2.80;2.60;;;29.60;20.90;;;;;;10433006;28;20225;-74
2021/06/03 11:19:18;;;;;;;3.00;2.70;;;29.70;21.00;;;;;;10425396;28;20430;-74
2021/06/03 11:24:44;;;;;;;2.80;2.60;;;29.80;21.00;;;;;;10426062;28;20229;-76
2021/06/03 11:29:59;;;;;;;3.00;2.80;;;29.80;21.00;;;;;;10431474;28;20278;-75
2021/06/03 11:35:06;;;;;;;3.70;2.57;;;29.90;19.60;;;;;;10430019;28;20221;-75
2021/06/03 11:40:16;;;;;;;2.83;2.63;;;29.90;19.80;;;;;;10431602;28;20267;-77
2021/06/03 11:45:24;;;;;;;2.87;2.67;;;30.00;19.60;;;;;;10433778;28;20319;-75
2021/06/03 11:51:07;;;;;;;3.00;2.80;;;30.00;19.30;;;;;;10425624;28;20227;-75
2021/06/03 11:56:16;;;;;;;2.70;2.43;;;30.10;20.80;;;;;;10411140;28;20741;-76
2021/06/03 12:01:36;;;;;;;2.83;2.63;;;30.20;19.40;;;;;;10423459;28;20320;-76
2021/06/03 12:06:41;;;;;;;2.80;2.60;;;30.10;19.60;;;;;;10419827;28;20660;-75
2021/06/03 12:11:45;;;;;;;5.10;2.70;;;30.10;18.90;;;;;;10422931;28;20235;-76
2021/06/03 12:16:51;;;;;;;2.87;2.60;;;30.00;19.20;;;;;;10431428;28;20229;-76
2021/06/03 12:21:57;;;;;;;2.90;2.70;;;30.10;18.80;;;;;;10421768;28;20234;-75
2021/06/03 12:27:00;;;;;;;2.77;2.47;;;30.20;18.90;;;;;;10426158;28;20671;-76
2021/06/03 12:32:05;;;;;;;4.33;2.63;;;30.20;19.00;;;;;;10422542;28;20275;-76
2021/06/03 12:37:23;;;;;;;3.87;2.53;;;30.20;18.50;;;;;;10417868;28;20232;-76
2021/06/03 12:42:28;;;;;;;2.63;2.40;;;30.30;17.90;;;;;;10422041;28;20229;-76
2021/06/03 12:47:34;;;;;;;2.40;2.30;;;30.40;18.20;;;;;;10424828;28;20383;-75
2021/06/03 12:52:38;;;;;;;3.57;2.60;;;30.40;17.40;;;;;;10419561;28;20671;-74
2021/06/03 12:57:41;;;;;;;2.93;2.73;;;30.40;18.20;;;;;;10420003;28;20236;-75
2021/06/03 13:02:48;;;;;;;2.43;2.23;;;30.30;17.80;;;;;;10420478;28;20225;-74
2021/06/03 13:07:50;;;;;;;2.60;2.40;;;30.30;17.60;;;;;;10423700;28;20226;-75
2021/06/03 13:12:56;;;;;;;2.60;2.40;;;30.30;17.70;;;;;;10426332;28;20235;-76
2021/06/03 13:18:04;;;;;;;2.60;2.40;;;30.30;17.20;;;;;;10426113;28;20233;-76
2021/06/03 13:23:09;;;;;;;2.57;2.30;;;30.30;17.50;;;;;;10423177;28;20756;-76
2021/06/03 13:28:17;;;;;;;2.70;2.50;;;30.40;17.10;;;;;;10434057;28;20240;-76
2021/06/03 13:33:24;;;;;;;2.50;2.27;;;30.40;17.60;;;;;;10430181;28;20232;-76
2021/06/03 13:38:27;;;;;;;3.27;2.40;;;30.50;16.40;;;;;;10431097;28;20228;-74
2021/06/03 13:43:33;;;;;;;2.40;2.30;;;30.60;16.90;;;;;;10437201;28;20231;-74
2021/06/03 13:48:41;;;;;;;2.47;2.37;;;30.60;16.90;;;;;;10434499;28;20225;-74
2021/06/03 13:53:46;;;;;;;2.83;2.60;;;30.60;15.80;;;;;;10436439;28;20316;-76
2021/06/03 13:58:52;;;;;;;2.63;2.43;;;30.60;16.50;;;;;;10426462;28;20308;-75
2021/06/03 14:04:02;;;;;;;2.37;2.27;;;30.60;16.20;;;;;;10429471;28;20260;-76
2021/06/03 14:09:23;;;;;;;2.10;2.00;;;30.60;15.60;;;;;;10427652;28;20231;-75
2021/06/03 14:14:29;;;;;;;2.30;2.20;;;30.70;16.60;;;;;;10423809;28;20233;-76
2021/06/03 14:19:45;;;;;;;2.27;2.07;;;30.70;16.20;;;;;;10424882;28;20227;-75
2021/06/03 14:24:57;;;;;;;2.60;2.40;;;30.80;15.50;;;;;;10419256;28;20312;-76
2021/06/03 14:30:10;;;;;;;2.63;2.40;;;30.90;15.50;;;;;;10425392;28;20228;-78
2021/06/03 14:35:18;;;;;;;2.60;2.20;;;30.90;15.40;;;;;;10427593;28;20217;-76
2021/06/03 14:40:27;;;;;;;2.60;1.97;;;31.00;15.00;;;;;;10426569;28;20238;-75
2021/06/03 14:45:31;;;;;;;2.27;2.17;;;31.00;15.50;;;;;;10426851;28;20232;-75
2021/06/03 14:50:37;;;;;;;3.27;2.37;;;31.00;15.30;;;;;;10421151;28;20229;-76
2021/06/03 14:55:42;;;;;;;2.30;2.20;;;31.00;15.00;;;;;;10427302;28;20221;-75
2021/06/03 15:00:47;;;;;;;2.50;2.30;;;31.00;15.20;;;;;;10427580;28;20311;-76
2021/06/03 15:05:52;;;;;;;2.53;2.37;;;30.90;14.80;;;;;;10423410;28;20596;-76
2021/06/03 15:10:55;;;;;;;2.40;2.23;;;30.80;14.50;;;;;;10422891;28;20235;-75
2021/06/03 15:16:01;;;;;;;2.40;2.30;;;30.70;15.00;;;;;;10422872;28;20222;-75
2021/06/03 15:21:07;;;;;;;2.60;2.50;;;30.70;14.80;;;;;;10429522;28;20329;-77
2021/06/03 15:26:10;;;;;;;2.60;2.33;;;30.70;15.00;;;;;;10433016;28;20706;-75
2021/06/03 15:31:13;;;;;;;2.30;2.20;;;30.70;15.00;;;;;;10432521;28;20596;-73
2021/06/03 15:36:17;;;;;;;2.30;2.20;;;30.70;15.30;;;;;;10426044;28;20232;-76
2021/06/03 15:41:20;;;;;;;2.20;2.10;;;30.70;14.80;;;;;;10426200;28;20232;-75
2021/06/03 15:46:23;;;;;;;2.40;2.20;;;30.70;15.00;;;;;;10430791;28;20229;-75
2021/06/03 15:51:27;;;;;;;2.27;2.17;;;30.80;15.00;;;;;;10425001;28;20228;-75
2021/06/03 15:56:31;;;;;;;2.23;2.03;;;30.90;14.50;;;;;;10425809;28;20225;-75
2021/06/03 16:01:34;;;;;;;1.93;1.80;;;31.00;14.60;;;;;;10428282;28;20820;-75
2021/06/03 16:06:38;;;;;;;2.20;2.00;;;31.10;14.40;;;;;;10423078;28;20236;-75
2021/06/03 16:11:41;;;;;;;2.37;2.17;;;31.10;14.30;;;;;;10420253;28;20225;-75
2021/06/03 16:16:43;;;;;;;2.10;2.00;;;31.10;14.20;;;;;;10425310;28;20226;-75
2021/06/03 16:21:47;;;;;;;2.03;1.93;;;31.10;14.10;;;;;;10423023;28;20276;-75
2021/06/03 16:26:50;;;;;;;2.33;2.13;;;31.10;13.60;;;;;;10427460;28;20229;-75
2021/06/03 16:31:53;;;;;;;2.20;2.10;;;31.10;13.90;;;;;;10432236;28;20229;-75
2021/06/03 16:36:57;;;;;;;1.93;1.83;;;31.00;14.00;;;;;;10433222;28;20224;-75
2021/06/03 16:42:01;;;;;;;2.07;1.97;;;31.00;13.60;;;;;;10427899;28;20367;-75
2021/06/03 16:47:04;;;;;;;2.13;1.97;;;31.00;13.70;;;;;;10430683;28;20229;-75
2021/06/03 16:52:26;;;;;;;2.20;2.00;;;31.00;13.70;;;;;;10423545;28;20713;-75
2021/06/03 16:57:29;;;;;;;1.87;1.77;;;30.90;13.60;;;;;;10422795;28;20229;-75
2021/06/03 17:02:31;;;;;;;2.23;2.00;;;30.90;13.90;;;;;;10428502;28;20221;-76
2021/06/03 17:07:36;;;;;;;1.63;1.53;;;30.90;14.00;;;;;;10426133;28;20688;-75
2021/06/03 17:12:39;;;;;;;1.80;1.70;;;30.90;13.20;;;;;;10424533;28;20320;-75
2021/06/03 17:17:43;;;;;;;1.60;1.50;;;30.80;13.00;;;;;;10437182;28;20227;-75
2021/06/03 17:22:47;;;;;;;1.80;1.70;;;30.70;13.30;;;;;;10425306;28;20606;-75
2021/06/03 17:27:52;;;;;;;1.70;1.60;;;30.60;13.00;;;;;;10431934;28;20231;-75
2021/06/03 17:32:56;;;;;;;2.00;1.63;;;30.40;13.40;;;;;;10427984;28;20221;-75
2021/06/03 17:38:02;;;;;;;1.40;1.30;;;30.30;13.60;;;;;;10423861;28;20227;-75
2021/06/03 17:43:05;;;;;;;1.70;1.60;;;30.20;14.00;;;;;;10425223;28;20399;-75
2021/06/03 17:48:09;;;;;;;1.40;1.40;;;30.20;13.50;;;;;;10426440;28;20237;-75
2021/06/03 17:53:13;;;;;;;1.60;1.50;;;30.10;13.60;;;;;;10425917;28;20308;-75
2021/06/03 17:58:17;;;;;;;1.80;1.70;;;30.00;13.50;;;;;;10420863;28;20221;-74
2021/06/03 18:03:20;;;;;;;1.80;1.70;;;30.00;13.50;;;;;;10425105;28;20718;-74
2021/06/03 18:08:24;;;;;;;1.67;1.57;;;29.90;13.70;;;;;;10414835;28;20236;-74
2021/06/03 18:13:27;;;;;;;1.70;1.60;;;29.80;13.70;;;;;;10425508;28;20232;-75
2021/06/03 18:18:30;;;;;;;1.80;1.70;;;29.80;13.80;;;;;;10431489;28;20229;-75
2021/06/03 18:23:35;;;;;;;3.40;1.70;;;29.70;14.00;;;;;;10425787;28;20226;-76
2021/06/03 18:28:39;;;;;;;2.23;1.70;;;29.60;14.60;;;;;;10431688;28;20256;-76
2021/06/03 18:33:44;;;;;;;2.33;1.70;;;29.50;14.80;;;;;;10420438;28;20221;-76
2021/06/03 18:38:48;;;;;;;3.70;1.90;;;29.40;15.10;;;;;;10426891;28;20697;-76
2021/06/03 18:43:51;;;;;;;2.30;2.10;;;29.30;15.60;;;;;;10425485;28;20834;-76
2021/06/03 18:48:53;;;;;;;5.00;1.77;;;29.20;15.90;;;;;;10430386;28;20225;-76
2021/06/03 18:53:58;;;;;;;2.00;1.83;;;29.00;16.20;;;;;;10432512;28;20233;-75
2021/06/03 18:59:00;;;;;;;2.13;1.93;;;28.90;16.60;;;;;;10430324;28;20717;-76
2021/06/03 19:04:03;;;;;;;2.00;1.90;;;28.80;16.60;;;;;;10420370;28;20228;-76
2021/06/03 19:09:07;;;;;;;1.80;1.70;;;28.60;16.40;;;;;;10431101;28;20240;-76
2021/06/03 19:14:10;;;;;;;2.00;1.90;;;28.50;17.10;;;;;;10426811;28;20237;-77
2021/06/03 19:19:13;;;;;;;1.90;1.80;;;28.30;17.00;;;;;;10425609;28;20226;-73
2021/06/03 19:24:17;;;;;;;2.10;2.00;;;28.20;17.10;;;;;;10432371;28;20308;-81
2021/06/03 19:29:20;;;;;;;2.00;1.90;;;28.00;17.40;;;;;;10446165;28;20232;-79
2021/06/03 19:34:22;;;;;;;2.20;2.00;;;27.90;17.40;;;;;;10442126;28;20697;-80
2021/06/03 19:39:27;;;;;;;2.00;1.77;;;27.70;17.60;;;;;;10437620;28;20260;-79
2021/06/03 19:44:30;;;;;;;1.70;1.60;;;27.50;17.90;;;;;;10435795;28;20308;-79
2021/06/03 19:49:32;;;;;;;2.13;1.87;;;27.30;17.70;;;;;;10431702;28;20270;-79
2021/06/03 19:54:37;;;;;;;1.80;1.70;;;27.20;18.00;;;;;;10437214;28;20320;-79
2021/06/03 19:59:39;;;;;;;1.90;1.80;;;27.00;18.50;;;;;;10438480;28;20327;-79
2021/06/03 20:04:42;;;;;;;1.90;1.80;;;26.90;18.40;;;;;;10430686;28;20257;-79
2021/06/03 20:09:46;;;;;;;2.40;2.20;;;26.80;18.50;;;;;;10434052;28;20225;-79
2021/06/03 20:14:49;;;;;;;2.40;2.00;;;26.70;19.40;;;;;;10440559;28;20217;-79
2021/06/03 20:19:52;;;;;;;1.97;1.80;;;26.60;19.00;;;;;;10438332;28;20218;-79
2021/06/03 20:24:56;;;;;;;2.20;2.10;;;26.50;19.30;;;;;;10440708;28;20224;-79
2021/06/03 20:29:59;;;;;;;3.07;2.20;;;26.40;19.30;;;;;;10436990;28;20577;-79
2021/06/03 20:35:02;;;;;;;2.47;2.27;;;26.30;19.20;;;;;;10421604;28;20819;-79
2021/06/03 20:40:09;;;;;;;2.60;2.27;;;26.20;19.10;;;;;;10436203;28;20231;-79
2021/06/03 20:45:15;;;;;;;2.47;2.27;;;26.00;19.50;;;;;;10436668;28;20274;-79
2021/06/03 20:50:18;;;;;;;2.50;2.33;;;25.90;19.50;;;;;;10433812;28;20231;-79
2021/06/03 20:55:24;;;;;;;2.70;2.53;;;25.80;19.70;;;;;;10440132;28;20663;-79
2021/06/03 21:00:29;;;;;;;2.37;2.27;;;25.70;20.10;;;;;;10438891;28;20220;-79
2021/06/03 21:05:33;;;;;;;3.00;2.73;;;25.60;20.00;;;;;;10436029;28;20312;-79
2021/06/03 21:10:41;;;;;;;3.23;2.97;;;25.50;20.20;;;;;;10427959;28;20228;-79
2021/06/03 21:15:45;;;;;;;2.80;2.60;;;25.40;20.80;;;;;;10438721;28;20308;-79
2021/06/03 21:20:48;;;;;;;2.90;2.70;;;25.20;20.60;;;;;;10431339;28;20222;-79
2021/06/03 21:25:53;;;;;;;3.00;2.80;;;25.10;20.80;;;;;;10434670;28;20232;-80
2021/06/03 21:30:56;;;;;;;3.30;3.00;;;24.90;21.00;;;;;;10430548;28;20225;-79
2021/06/03 21:35:59;;;;;;;3.23;3.03;;;24.70;20.90;;;;;;10433772;28;20229;-78
2021/06/03 21:41:03;;;;;;;3.40;3.20;;;24.50;21.10;;;;;;10440019;28;20617;-77
2021/06/03 21:46:07;;;;;;;3.93;3.60;;;24.40;21.80;;;;;;10421209;28;20233;-78
2021/06/03 21:51:09;;;;;;;4.10;3.03;;;24.20;21.70;;;;;;10434569;28;20228;-78
2021/06/03 21:56:14;;;;;;;2.90;2.70;;;24.10;21.70;;;;;;10441597;28;20235;-80
2021/06/03 22:01:17;;;;;;;3.43;3.13;;;24.00;22.00;;;;;;10443272;28;20235;-78
2021/06/03 22:06:20;;;;;;;4.50;4.10;;;23.90;22.20;;;;;;10446947;28;20268;-78
2021/06/03 22:11:24;;;;;;;4.13;3.83;;;23.80;22.30;;;;;;10443683;28;20228;-78
2021/06/03 22:16:26;;;;;;;3.20;3.00;;;23.80;22.80;;;;;;10431947;28;20224;-79
2021/06/03 22:21:29;;;;;;;3.53;3.23;;;23.70;22.70;;;;;;10434229;28;20234;-78
2021/06/03 22:26:34;;;;;;;3.60;3.30;;;23.60;22.70;;;;;;10442316;28;20225;-78
2021/06/03 22:31:38;;;;;;;3.20;3.00;;;23.50;23.20;;;;;;10442855;28;20769;-79
2021/06/03 22:36:41;;;;;;;3.07;2.80;;;23.50;23.00;;;;;;10441626;28;20713;-78
2021/06/03 22:41:46;;;;;;;2.93;2.73;;;23.30;23.00;;;;;;10437791;28;20235;-78
2021/06/03 22:46:48;;;;;;;3.17;2.97;;;23.30;23.50;;;;;;10440213;28;20231;-78
2021/06/03 22:51:52;;;;;;;2.97;2.67;;;23.20;23.10;;;;;;10441284;28;20304;-79
2021/06/03 22:56:56;;;;;;;4.63;4.23;;;23.00;23.40;;;;;;10435249;28;20224;-78
2021/06/03 23:02:01;;;;;;;5.40;4.90;;;22.90;24.00;;;;;;10438835;28;20221;-78
2021/06/03 23:07:05;;;;;;;5.97;5.50;;;22.80;23.90;;;;;;10446234;28;20253;-78
2021/06/03 23:12:10;;;;;;;6.10;5.10;;;22.70;24.00;;;;;;10438048;28;20275;-78
2021/06/03 23:17:13;;;;;;;4.47;4.07;;;22.60;24.40;;;;;;10435060;28;20225;-78
2021/06/03 23:22:15;;;;;;;4.40;3.90;;;22.40;24.00;;;;;;10444633;28;20227;-78
2021/06/03 23:27:20;;;;;;;4.00;3.53;;;22.40;24.10;;;;;;10435428;28;20225;-78
2021/06/03 23:32:22;;;;;;;3.80;3.50;;;22.30;24.40;;;;;;10444268;28;20225;-78
2021/06/03 23:37:25;;;;;;;2.80;2.60;;;22.20;24.10;;;;;;10435631;28;20232;-78
2021/06/03 23:42:29;;;;;;;2.93;2.57;;;22.20;24.20;;;;;;10441533;28;20726;-78
2021/06/03 23:47:32;;;;;;;5.23;2.77;;;22.10;24.70;;;;;;10436030;28;20290;-78
2021/06/03 23:52:35;;;;;;;3.00;2.53;;;22.00;25.00;;;;;;10444725;28;20359;-78
2021/06/03 23:57:39;;;;;;;2.50;2.30;;;21.90;24.30;;;;;;10429708;28;20851;-78
